createdAt,value
2022-08-14T00:01:31.723Z,0.02
2022-08-14T00:02:31.767Z,0.00
2022-08-14T00:03:31.892Z,0.00
2022-08-14T00:04:36.126Z,0.00
2022-08-14T00:05:32.784Z,0.00
2022-08-14T00:06:31.769Z,0.00
2022-08-14T00:07:31.762Z,0.00
2022-08-14T00:08:45.126Z,0.00
2022-08-14T00:09:32.923Z,0.00
2022-08-14T00:11:33.374Z,0.02
2022-08-14T00:12:33.875Z,0.00
2022-08-14T00:13:32.560Z,0.00
2022-08-14T00:14:31.580Z,0.00
2022-08-14T00:15:43.300Z,0.00
2022-08-14T00:16:41.561Z,0.00
2022-08-14T00:17:38.044Z,0.00
2022-08-14T00:21:32.471Z,0.00
2022-08-14T00:22:44.158Z,0.00
2022-08-14T00:24:31.426Z,0.00
2022-08-14T00:25:42.096Z,0.00
2022-08-14T00:26:32.382Z,0.00
2022-08-14T00:29:39.987Z,0.00
2022-08-14T00:30:32.323Z,0.02
2022-08-14T00:32:51.658Z,0.00
2022-08-14T00:33:52.560Z,0.00
2022-08-14T00:34:35.453Z,0.00
2022-08-14T00:37:32.348Z,0.00
2022-08-14T00:38:32.036Z,0.00
2022-08-14T00:39:31.369Z,0.00
2022-08-14T00:40:35.570Z,0.00
2022-08-14T00:41:31.288Z,0.00
2022-08-14T00:42:56.054Z,0.00
2022-08-14T00:43:32.745Z,0.00
2022-08-14T00:46:33.047Z,0.02
2022-08-14T00:47:31.128Z,0.00
2022-08-14T00:48:34.292Z,0.00
2022-08-14T00:49:38.342Z,0.00
2022-08-14T00:51:36.846Z,0.00
2022-08-14T00:54:31.057Z,0.00
2022-08-14T00:56:31.415Z,0.00
2022-08-14T00:57:30.999Z,0.00
2022-08-14T00:59:30.961Z,0.00
2022-08-14T01:00:37.003Z,0.00
2022-08-14T01:01:31.967Z,0.00
2022-08-14T01:03:30.979Z,0.00
2022-08-14T01:05:41.872Z,0.00
2022-08-14T01:06:34.356Z,0.00
2022-08-14T01:07:41.471Z,0.02
2022-08-14T01:09:31.907Z,0.00
2022-08-14T01:10:38.240Z,0.00
2022-08-14T01:11:36.083Z,0.00
2022-08-14T01:12:30.809Z,0.00
2022-08-14T01:13:42.052Z,0.00
2022-08-14T01:14:31.733Z,0.00
2022-08-14T01:15:48.158Z,0.00
2022-08-14T01:16:31.901Z,0.00
2022-08-14T01:17:30.731Z,0.00
2022-08-14T01:18:30.727Z,0.00
2022-08-14T01:21:30.805Z,0.00
2022-08-14T01:22:30.805Z,0.00
2022-08-14T01:23:41.688Z,0.00
2022-08-14T01:24:34.438Z,0.00
2022-08-14T01:26:35.752Z,0.00
2022-08-14T01:27:31.610Z,0.00
2022-08-14T01:28:46.440Z,0.00
2022-08-14T01:29:58.679Z,0.02
2022-08-14T01:31:31.561Z,0.00
2022-08-14T01:32:31.533Z,0.00
2022-08-14T01:33:59.257Z,0.00
2022-08-14T01:35:19.131Z,0.00
2022-08-14T01:36:32.477Z,0.00
2022-08-14T01:37:31.463Z,0.00
2022-08-14T01:38:30.449Z,0.02
2022-08-14T01:40:36.672Z,0.00
2022-08-14T01:41:31.638Z,0.00
2022-08-14T01:42:31.310Z,0.00
2022-08-14T01:44:32.773Z,0.00
2022-08-14T01:48:31.292Z,0.00
2022-08-14T01:51:30.331Z,0.00
2022-08-14T01:52:34.584Z,0.02
2022-08-14T01:54:37.803Z,0.00
2022-08-14T01:58:31.191Z,0.00
2022-08-14T01:59:37.982Z,0.00
2022-08-14T02:01:31.323Z,0.00
2022-08-14T02:02:30.129Z,0.00
2022-08-14T02:03:31.310Z,0.00
2022-08-14T02:04:54.840Z,0.00
2022-08-14T02:05:38.109Z,0.00
2022-08-14T02:06:32.884Z,0.00
2022-08-14T02:07:53.451Z,0.00
2022-08-14T02:08:35.674Z,0.00
2022-08-14T02:11:29.987Z,0.00
2022-08-14T02:12:30.899Z,0.00
2022-08-14T02:14:31.642Z,0.00
2022-08-14T02:15:29.972Z,0.00
2022-08-14T02:16:29.969Z,0.00
2022-08-14T02:18:32.653Z,0.00
2022-08-14T02:19:32.250Z,0.00
2022-08-14T02:20:29.895Z,0.00
2022-08-14T02:21:29.905Z,0.00
2022-08-14T02:22:47.856Z,0.00
2022-08-14T02:23:36.278Z,0.00
2022-08-14T02:26:30.863Z,0.00
2022-08-14T02:29:59.283Z,0.00
2022-08-14T02:30:31.524Z,0.02
2022-08-14T02:32:36.601Z,0.00
2022-08-14T02:38:35.052Z,0.00
2022-08-14T02:39:29.920Z,0.00
2022-08-14T02:40:32.577Z,0.00
2022-08-14T02:41:31.835Z,0.00
2022-08-14T02:42:37.062Z,0.00
2022-08-14T02:43:37.430Z,0.00
2022-08-14T02:45:32.870Z,0.00
2022-08-14T02:46:32.224Z,0.00
2022-08-14T02:47:29.570Z,0.00
2022-08-14T02:49:34.046Z,0.00
2022-08-14T02:51:30.374Z,0.00
2022-08-14T02:52:55.976Z,0.00
2022-08-14T02:53:31.145Z,0.00
2022-08-14T02:55:29.451Z,0.00
2022-08-14T02:57:40.044Z,0.00
2022-08-14T02:58:31.106Z,0.00
2022-08-14T02:59:29.434Z,0.00
2022-08-14T03:00:29.360Z,0.00
2022-08-14T03:01:31.507Z,0.00
2022-08-14T03:02:48.717Z,0.00
2022-08-14T03:03:31.853Z,0.00
2022-08-14T03:04:30.295Z,0.00
2022-08-14T03:07:30.265Z,0.00
2022-08-14T03:08:29.239Z,0.00
2022-08-14T03:10:25.274Z,0.00
2022-08-14T03:10:32.318Z,0.00
2022-08-14T03:11:35.069Z,0.00
2022-08-14T03:12:32.198Z,0.00
2022-08-14T03:13:29.634Z,0.00
2022-08-14T03:14:29.177Z,0.00
2022-08-14T03:15:29.176Z,0.02
2022-08-14T03:16:30.172Z,0.00
2022-08-14T03:17:32.109Z,0.00
2022-08-14T03:18:31.112Z,0.00
2022-08-14T03:19:29.111Z,0.00
2022-08-14T03:20:29.323Z,0.00
2022-08-14T03:21:29.091Z,0.04
2022-08-14T03:22:29.871Z,0.04
2022-08-14T03:23:29.080Z,0.01
2022-08-14T03:24:29.092Z,0.00
2022-08-14T03:25:29.078Z,0.01
2022-08-14T03:26:30.349Z,0.01
2022-08-14T03:27:35.373Z,0.01
2022-08-14T03:28:33.220Z,0.05
2022-08-14T03:29:29.475Z,0.01
2022-08-14T03:30:38.870Z,0.11
2022-08-14T03:31:30.301Z,0.02
2022-08-14T03:32:30.606Z,0.14
2022-08-14T03:33:37.737Z,0.03
2022-08-14T03:34:48.524Z,0.08
2022-08-14T03:35:30.957Z,0.10
2022-08-14T03:37:51.459Z,0.04
2022-08-14T03:38:01.697Z,0.13
2022-08-14T03:39:13.885Z,0.05
2022-08-14T03:39:30.190Z,0.07
2022-08-14T03:40:29.156Z,0.08
2022-08-14T03:41:29.161Z,0.09
2022-08-14T03:42:31.179Z,0.14
2022-08-14T03:43:32.422Z,0.13
2022-08-14T03:45:25.143Z,0.15
2022-08-14T03:45:35.384Z,0.17
2022-08-14T03:46:52.573Z,0.21
2022-08-14T03:47:46.619Z,0.23
2022-08-14T03:48:31.403Z,0.28
2022-08-14T03:49:30.314Z,0.32
2022-08-14T03:50:31.447Z,0.36
2022-08-14T03:51:29.173Z,0.48
2022-08-14T03:52:40.580Z,0.47
2022-08-14T03:53:31.333Z,0.69
2022-08-14T03:54:29.179Z,0.66
2022-08-14T03:55:30.370Z,0.83
2022-08-14T03:56:29.178Z,1.14
2022-08-14T03:57:29.479Z,1.25
2022-08-14T03:58:35.312Z,1.24
2022-08-14T03:59:30.205Z,1.49
2022-08-14T04:00:43.235Z,1.72
2022-08-14T04:01:41.592Z,1.98
2022-08-14T04:02:46.770Z,2.48
2022-08-14T04:03:30.223Z,2.68
2022-08-14T04:04:29.238Z,3.10
2022-08-14T04:05:29.235Z,3.63
2022-08-14T04:06:32.177Z,4.21
2022-08-14T04:07:32.804Z,5.01
2022-08-14T04:08:31.833Z,5.85
2022-08-14T04:09:29.354Z,6.75
2022-08-14T04:10:32.551Z,7.67
2022-08-14T04:11:29.259Z,8.65
2022-08-14T04:12:29.256Z,9.74
2022-08-14T04:13:31.856Z,11.03
2022-08-14T04:14:29.448Z,12.49
2022-08-14T04:15:28.247Z,14.11
2022-08-14T04:16:31.723Z,15.83
2022-08-14T04:17:28.262Z,17.55
2022-08-14T04:18:28.273Z,19.28
2022-08-14T04:19:32.968Z,21.06
2022-08-14T04:20:29.270Z,22.99
2022-08-14T04:21:28.248Z,25.25
2022-08-14T04:22:28.258Z,27.75
2022-08-14T04:23:29.956Z,30.50
2022-08-14T04:24:28.257Z,33.24
2022-08-14T04:25:28.246Z,35.91
2022-08-14T04:26:43.215Z,38.59
2022-08-14T04:27:29.250Z,41.21
2022-08-14T04:29:07.466Z,44.00
2022-08-14T04:29:29.252Z,47.03
2022-08-14T04:30:32.544Z,50.19
2022-08-14T04:32:58.749Z,53.40
2022-08-14T04:33:02.298Z,56.80
2022-08-14T04:33:29.390Z,60.86
2022-08-14T04:34:28.437Z,64.94
2022-08-14T04:35:55.881Z,69.54
2022-08-14T04:36:29.324Z,74.09
2022-08-14T04:37:28.341Z,78.60
2022-08-14T04:38:36.377Z,83.14
2022-08-14T04:39:29.404Z,87.82
2022-08-14T04:40:28.362Z,93.28
2022-08-14T04:41:30.545Z,98.48
2022-08-14T04:42:28.372Z,104.36
2022-08-14T04:43:38.237Z,110.32
2022-08-14T04:44:36.923Z,116.66
2022-08-14T04:45:29.780Z,123.40
2022-08-14T04:46:55.818Z,129.87
2022-08-14T04:47:30.846Z,136.78
2022-08-14T04:48:36.614Z,143.79
2022-08-14T04:49:29.369Z,151.14
2022-08-14T04:50:37.825Z,157.66
2022-08-14T04:51:30.150Z,165.06
2022-08-14T04:52:29.394Z,172.44
2022-08-14T04:53:35.242Z,179.43
2022-08-14T04:54:29.394Z,187.12
2022-08-14T04:55:28.604Z,195.37
2022-08-14T04:56:34.313Z,203.16
2022-08-14T04:57:29.424Z,210.42
2022-08-14T04:58:32.899Z,219.69
2022-08-14T04:59:29.456Z,226.65
2022-08-14T05:00:28.473Z,235.01
2022-08-14T05:01:28.511Z,242.62
2022-08-14T05:02:29.578Z,250.50
2022-08-14T05:03:30.469Z,257.51
2022-08-14T05:04:28.518Z,264.22
2022-08-14T05:05:28.520Z,271.58
2022-08-14T05:06:37.890Z,278.98
2022-08-14T05:07:46.705Z,285.13
2022-08-14T05:08:31.732Z,293.21
2022-08-14T05:09:28.926Z,299.26
2022-08-14T05:10:32.323Z,306.28
2022-08-14T05:11:28.502Z,311.66
2022-08-14T05:13:12.780Z,318.18
2022-08-14T05:13:29.783Z,324.35
2022-08-14T05:14:46.882Z,330.90
2022-08-14T05:15:28.516Z,335.58
2022-08-14T05:16:27.519Z,340.83
2022-08-14T05:17:32.052Z,345.74
2022-08-14T05:19:18.972Z,349.33
2022-08-14T05:19:29.833Z,353.59
2022-08-14T05:21:56.519Z,355.09
2022-08-14T05:21:57.725Z,352.42
2022-08-14T05:22:28.590Z,351.45
2022-08-14T05:23:27.573Z,349.24
2022-08-14T05:24:27.572Z,349.08
2022-08-14T05:25:30.658Z,348.85
2022-08-14T05:26:28.614Z,352.46
2022-08-14T05:27:31.264Z,359.52
2022-08-14T05:28:27.647Z,365.83
2022-08-14T05:29:27.632Z,372.26
2022-08-14T05:30:27.633Z,379.07
2022-08-14T05:31:39.655Z,386.51
2022-08-14T05:32:28.672Z,391.66
2022-08-14T05:33:27.673Z,398.43
2022-08-14T05:34:28.742Z,478.27
2022-08-14T05:35:27.682Z,484.58
2022-08-14T05:36:27.706Z,488.35
2022-08-14T05:37:28.017Z,496.03
2022-08-14T05:38:31.739Z,497.87
2022-08-14T05:39:28.858Z,508.35
2022-08-14T05:40:27.756Z,512.64
2022-08-14T05:41:52.719Z,522.07
2022-08-14T05:42:31.788Z,522.67
2022-08-14T05:43:40.603Z,524.15
2022-08-14T05:44:30.781Z,535.98
2022-08-14T05:45:27.826Z,557.39
2022-08-14T05:46:27.829Z,569.83
2022-08-14T05:47:28.536Z,559.95
2022-08-14T05:48:33.052Z,539.53
2022-08-14T05:49:33.197Z,541.36
2022-08-14T05:50:29.263Z,545.02
2022-08-14T05:51:27.944Z,546.76
2022-08-14T05:52:39.167Z,547.31
2022-08-14T05:53:27.916Z,548.34
2022-08-14T05:54:27.951Z,552.37
2022-08-14T05:55:28.005Z,557.08
2022-08-14T05:56:27.010Z,556.89
2022-08-14T05:57:27.062Z,561.38
2022-08-14T05:58:33.883Z,566.06
2022-08-14T05:59:36.903Z,570.69
2022-08-14T06:00:31.561Z,574.07
2022-08-14T06:01:31.445Z,578.22
2022-08-14T06:02:27.099Z,580.22
2022-08-14T06:03:27.096Z,582.39
2022-08-14T06:04:27.109Z,587.90
2022-08-14T06:05:28.920Z,588.39
2022-08-14T06:06:27.186Z,590.03
2022-08-14T06:07:27.145Z,591.53
2022-08-14T06:08:35.997Z,594.19
2022-08-14T06:09:28.151Z,592.65
2022-08-14T06:10:28.388Z,595.10
2022-08-14T06:11:30.928Z,597.79
2022-08-14T06:12:56.119Z,602.79
2022-08-14T06:13:31.597Z,602.25
2022-08-14T06:14:27.220Z,604.04
2022-08-14T06:15:30.317Z,602.61
2022-08-14T06:16:27.233Z,607.52
2022-08-14T06:17:27.415Z,610.26
2022-08-14T06:18:31.982Z,611.74
2022-08-14T06:19:27.220Z,614.84
2022-08-14T06:20:28.653Z,616.51
2022-08-14T06:21:27.218Z,619.12
2022-08-14T06:22:27.306Z,619.27
2022-08-14T06:23:27.429Z,623.68
2022-08-14T06:24:27.199Z,624.27
2022-08-14T06:25:27.182Z,627.45
2022-08-14T06:26:29.967Z,627.31
2022-08-14T06:27:27.177Z,630.67
2022-08-14T06:28:28.612Z,631.26
2022-08-14T06:29:27.180Z,626.79
2022-08-14T06:30:42.210Z,630.80
2022-08-14T06:31:28.180Z,633.83
2022-08-14T06:32:37.894Z,630.24
2022-08-14T06:33:45.755Z,653.56
2022-08-14T06:35:03.241Z,674.32
2022-08-14T06:35:28.242Z,681.16
2022-08-14T06:36:28.186Z,701.67
2022-08-14T06:37:27.236Z,687.08
2022-08-14T06:38:27.234Z,657.01
2022-08-14T06:39:36.451Z,643.34
2022-08-14T06:40:28.737Z,633.13
2022-08-14T06:41:58.390Z,636.39
2022-08-14T06:42:32.816Z,636.85
2022-08-14T06:43:31.886Z,641.56
2022-08-14T06:44:30.593Z,642.65
2022-08-14T06:45:27.226Z,650.50
2022-08-14T06:46:34.181Z,664.33
2022-08-14T06:47:28.190Z,661.35
2022-08-14T06:48:27.173Z,638.17
2022-08-14T06:49:27.181Z,644.82
2022-08-14T06:50:28.177Z,661.44
2022-08-14T06:51:39.048Z,657.12
2022-08-14T06:52:27.142Z,652.53
2022-08-14T06:53:28.162Z,650.64
2022-08-14T06:54:31.345Z,649.30
2022-08-14T06:55:28.200Z,651.77
2022-08-14T06:56:26.148Z,660.04
2022-08-14T06:57:26.129Z,662.78
2022-08-14T06:58:29.370Z,665.21
2022-08-14T06:59:26.124Z,657.52
2022-08-14T07:00:26.665Z,661.45
2022-08-14T07:01:27.681Z,665.65
2022-08-14T07:02:29.168Z,669.80
2022-08-14T07:03:26.089Z,671.58
2022-08-14T07:04:27.113Z,670.38
2022-08-14T07:05:26.076Z,675.61
2022-08-14T07:06:45.585Z,681.52
2022-08-14T07:07:28.874Z,686.75
2022-08-14T07:08:26.059Z,691.76
2022-08-14T07:09:27.724Z,697.13
2022-08-14T07:10:26.050Z,695.83
2022-08-14T07:11:26.044Z,702.11
2022-08-14T07:12:52.297Z,703.71
2022-08-14T07:13:27.082Z,710.44
2022-08-14T07:14:26.408Z,713.98
2022-08-14T07:15:26.050Z,715.92
2022-08-14T07:16:27.297Z,717.86
2022-08-14T07:17:26.034Z,722.35
2022-08-14T07:18:26.034Z,725.37
2022-08-14T07:19:26.138Z,728.63
2022-08-14T07:20:31.215Z,732.75
2022-08-14T07:21:26.966Z,729.44
2022-08-14T07:22:33.036Z,730.60
2022-08-14T07:23:26.965Z,744.15
2022-08-14T07:24:30.982Z,747.32
2022-08-14T07:25:32.815Z,753.46
2022-08-14T07:26:26.968Z,753.41
2022-08-14T07:27:25.956Z,754.85
2022-08-14T07:28:25.995Z,764.33
2022-08-14T07:29:28.703Z,758.49
2022-08-14T07:30:33.944Z,756.02
2022-08-14T07:31:27.026Z,757.20
2022-08-14T07:32:34.159Z,768.94
2022-08-14T07:33:30.023Z,765.72
2022-08-14T07:34:36.682Z,769.26
2022-08-14T07:35:30.375Z,781.78
2022-08-14T07:36:30.626Z,783.59
2022-08-14T07:37:25.998Z,786.94
2022-08-14T07:38:25.994Z,793.81
2022-08-14T07:39:27.727Z,797.74
2022-08-14T07:40:27.430Z,808.55
2022-08-14T07:41:31.351Z,803.78
2022-08-14T07:42:26.973Z,812.15
2022-08-14T07:43:25.968Z,818.86
2022-08-14T07:44:32.567Z,818.95
2022-08-14T07:45:26.978Z,820.88
2022-08-14T07:46:29.523Z,826.10
2022-08-14T07:47:25.948Z,829.62
2022-08-14T07:48:25.968Z,835.72
2022-08-14T07:49:25.939Z,836.31
2022-08-14T07:50:25.958Z,839.66
2022-08-14T07:51:34.425Z,843.94
2022-08-14T07:52:30.763Z,844.90
2022-08-14T07:53:25.961Z,851.01
2022-08-14T07:54:29.934Z,853.94
2022-08-14T07:55:25.982Z,854.12
2022-08-14T07:56:47.029Z,854.87
2022-08-14T07:57:26.986Z,860.65
2022-08-14T07:58:31.638Z,862.24
2022-08-14T07:59:41.490Z,862.99
2022-08-14T08:00:31.592Z,867.91
2022-08-14T08:01:26.950Z,872.43
2022-08-14T08:02:25.940Z,872.21
2022-08-14T08:03:25.979Z,874.80
2022-08-14T08:04:27.156Z,880.31
2022-08-14T08:05:25.953Z,883.21
2022-08-14T08:06:26.694Z,886.92
2022-08-14T08:07:29.399Z,890.24
2022-08-14T08:08:26.918Z,891.58
2022-08-14T08:09:32.563Z,897.55
2022-08-14T08:10:40.703Z,900.93
2022-08-14T08:11:26.864Z,901.60
2022-08-14T08:12:30.205Z,905.14
2022-08-14T08:13:29.205Z,913.52
2022-08-14T08:14:25.838Z,912.90
2022-08-14T08:15:25.786Z,913.98
2022-08-14T08:16:25.805Z,928.10
2022-08-14T08:17:25.754Z,930.31
2022-08-14T08:18:29.139Z,933.31
2022-08-14T08:19:25.728Z,938.08
2022-08-14T08:20:27.248Z,941.45
2022-08-14T08:21:27.134Z,945.86
2022-08-14T08:22:27.192Z,946.14
2022-08-14T08:23:30.320Z,949.79
2022-08-14T08:24:26.689Z,954.53
2022-08-14T08:25:25.688Z,956.20
2022-08-14T08:26:25.710Z,955.12
2022-08-14T08:27:25.678Z,940.77
2022-08-14T08:28:26.547Z,950.68
2022-08-14T08:29:29.140Z,960.78
2022-08-14T08:30:25.671Z,969.80
2022-08-14T08:31:33.004Z,969.14
2022-08-14T08:32:29.915Z,981.62
2022-08-14T08:33:25.650Z,970.66
2022-08-14T08:34:26.691Z,981.25
2022-08-14T08:35:25.622Z,975.76
2022-08-14T08:36:30.022Z,965.28
2022-08-14T08:37:25.611Z,965.64
2022-08-14T08:39:14.681Z,925.40
2022-08-14T08:39:42.221Z,954.53
2022-08-14T08:40:31.135Z,981.55
2022-08-14T08:41:25.640Z,1006.39
2022-08-14T08:42:31.228Z,1010.23
2022-08-14T08:43:26.595Z,1011.21
2022-08-14T08:44:33.125Z,998.45
2022-08-14T08:45:27.847Z,953.85
2022-08-14T08:46:25.593Z,987.59
2022-08-14T08:47:25.555Z,984.26
2022-08-14T08:48:31.848Z,983.19
2022-08-14T08:49:26.516Z,982.78
2022-08-14T08:50:31.138Z,985.03
2022-08-14T08:51:33.279Z,1012.72
2022-08-14T08:52:29.048Z,1032.01
2022-08-14T08:53:27.476Z,1038.27
2022-08-14T08:54:26.771Z,1038.67
2022-08-14T08:55:26.384Z,1046.48
2022-08-14T08:56:30.704Z,1045.49
2022-08-14T08:57:26.350Z,1049.46
2022-08-14T08:58:25.581Z,1057.83
2022-08-14T08:59:27.067Z,1058.66
2022-08-14T09:00:27.107Z,1062.69
2022-08-14T09:01:25.328Z,1062.49
2022-08-14T09:02:26.117Z,1067.92
2022-08-14T09:03:25.221Z,1062.78
2022-08-14T09:04:25.205Z,1072.36
2022-08-14T09:05:25.163Z,1062.21
2022-08-14T09:07:01.232Z,1071.12
2022-08-14T09:07:26.119Z,1082.72
2022-08-14T09:08:30.511Z,1077.35
2022-08-14T09:09:26.088Z,1072.38
2022-08-14T09:10:27.383Z,1098.80
2022-08-14T09:11:25.031Z,1113.47
2022-08-14T09:12:25.026Z,1109.28
2022-08-14T09:13:25.016Z,1100.76
2022-08-14T09:14:24.968Z,1104.02
2022-08-14T09:15:25.143Z,1105.19
2022-08-14T09:16:25.328Z,1117.99
2022-08-14T09:17:25.952Z,1121.51
2022-08-14T09:18:24.849Z,1121.31
2022-08-14T09:19:24.805Z,1125.62
2022-08-14T09:20:29.648Z,1128.05
2022-08-14T09:21:31.375Z,1142.09
2022-08-14T09:22:35.138Z,1140.97
2022-08-14T09:23:35.159Z,1160.36
2022-08-14T09:24:29.069Z,1165.35
2022-08-14T09:26:00.415Z,1168.36
2022-08-14T09:26:28.439Z,1169.56
2022-08-14T09:27:24.569Z,1175.59
2022-08-14T09:28:24.512Z,1187.54
2022-08-14T09:29:24.482Z,1187.05
2022-08-14T09:30:32.529Z,1206.88
2022-08-14T09:31:25.420Z,1208.80
2022-08-14T09:32:57.888Z,1209.33
2022-08-14T09:33:25.401Z,1212.87
2022-08-14T09:34:28.256Z,1221.99
2022-08-14T09:35:24.267Z,1225.64
2022-08-14T09:36:24.217Z,1233.42
2022-08-14T09:37:24.175Z,1241.99
2022-08-14T09:38:25.783Z,1242.58
2022-08-14T09:39:24.175Z,1236.33
2022-08-14T09:40:24.216Z,1232.65
2022-08-14T09:41:25.067Z,1240.30
2022-08-14T09:42:45.224Z,1242.73
2022-08-14T09:43:24.966Z,1243.94
2022-08-14T09:44:23.909Z,1220.08
2022-08-14T09:45:23.898Z,1220.46
2022-08-14T09:46:25.797Z,1211.78
2022-08-14T09:47:24.811Z,1215.85
2022-08-14T09:48:27.722Z,1190.76
2022-08-14T09:49:25.721Z,1242.92
2022-08-14T09:50:25.918Z,1214.85
2022-08-14T09:51:25.396Z,1227.88
2022-08-14T09:52:33.759Z,1247.10
2022-08-14T09:54:06.055Z,1267.39
2022-08-14T09:54:25.499Z,1253.23
2022-08-14T09:55:24.471Z,1256.62
2022-08-14T09:56:31.055Z,1266.43
2022-08-14T09:57:27.678Z,1268.80
2022-08-14T09:58:24.766Z,1276.90
2022-08-14T09:59:24.277Z,1287.81
2022-08-14T10:00:29.333Z,1139.70
2022-08-14T10:01:25.221Z,1272.98
2022-08-14T10:02:24.227Z,1289.76
2022-08-14T10:03:24.110Z,1290.38
2022-08-14T10:04:34.839Z,1307.02
2022-08-14T10:05:25.012Z,1328.50
2022-08-14T10:06:23.967Z,1334.83
2022-08-14T10:07:23.967Z,1338.26
2022-08-14T10:08:26.128Z,1339.29
2022-08-14T10:09:23.864Z,1326.59
2022-08-14T10:10:24.099Z,1328.55
2022-08-14T10:11:24.069Z,1334.12
2022-08-14T10:12:28.750Z,1320.99
2022-08-14T10:13:23.772Z,1282.77
2022-08-14T10:14:34.982Z,1236.67
2022-08-14T10:15:24.652Z,1253.51
2022-08-14T10:16:27.213Z,1293.32
2022-08-14T10:17:24.558Z,1295.29
2022-08-14T10:18:23.524Z,1279.01
2022-08-14T10:19:23.670Z,1273.51
2022-08-14T10:20:39.546Z,1280.68
2022-08-14T10:21:24.555Z,1296.04
2022-08-14T10:23:13.328Z,1270.92
2022-08-14T10:23:26.238Z,1275.10
2022-08-14T10:24:24.517Z,1285.10
2022-08-14T10:25:25.326Z,1241.35
2022-08-14T10:26:28.237Z,1280.39
2022-08-14T10:27:24.236Z,1299.55
2022-08-14T10:29:03.971Z,1306.19
2022-08-14T10:29:25.205Z,1299.88
2022-08-14T10:30:26.264Z,1302.22
2022-08-14T10:31:25.716Z,1298.12
2022-08-14T10:32:28.540Z,1277.17
2022-08-14T10:33:24.898Z,1290.13
2022-08-14T10:34:33.388Z,1301.64
2022-08-14T10:35:30.935Z,1287.04
2022-08-14T10:36:35.002Z,1290.58
2022-08-14T10:37:27.963Z,1294.99
2022-08-14T10:38:23.532Z,1287.73
2022-08-14T10:39:23.502Z,1276.71
2022-08-14T10:40:37.697Z,1303.13
2022-08-14T10:41:24.461Z,1299.55
2022-08-14T10:42:24.272Z,1314.96
2022-08-14T10:43:23.968Z,1323.92
2022-08-14T10:44:23.186Z,1334.25
2022-08-14T10:45:23.148Z,1338.92
2022-08-14T10:47:37.260Z,1222.31
2022-08-14T10:47:40.289Z,1263.65
2022-08-14T10:48:37.030Z,1283.27
2022-08-14T10:49:25.002Z,1337.52
2022-08-14T10:50:23.976Z,1357.45
2022-08-14T10:51:23.918Z,1385.69
2022-08-14T10:52:23.897Z,1367.29
2022-08-14T10:53:23.855Z,1375.20
2022-08-14T10:54:36.141Z,1408.93
2022-08-14T10:55:24.779Z,1398.17
2022-08-14T10:56:34.298Z,1394.29
2022-08-14T10:57:25.156Z,1390.63
2022-08-14T10:58:23.636Z,1224.86
2022-08-14T10:59:23.627Z,1202.19
2022-08-14T11:00:30.249Z,1202.77
2022-08-14T11:01:24.496Z,1201.73
2022-08-14T11:02:50.338Z,1205.42
2022-08-14T11:03:35.910Z,1123.95
2022-08-14T11:04:25.984Z,1419.67
2022-08-14T11:05:23.235Z,1413.08
2022-08-14T11:06:24.728Z,1401.21
2022-08-14T11:07:24.765Z,976.20
2022-08-14T11:08:23.030Z,1251.76
2022-08-14T11:09:23.009Z,1271.82
2022-08-14T11:10:22.948Z,1267.40
2022-08-14T11:11:22.900Z,1262.70
2022-08-14T11:12:34.094Z,1257.33
2022-08-14T11:13:24.117Z,1278.83
2022-08-14T11:14:26.430Z,1281.59
2022-08-14T11:15:23.662Z,1426.17
2022-08-14T11:16:23.592Z,1449.45
2022-08-14T11:17:23.552Z,1447.80
2022-08-14T11:18:30.269Z,1454.38
2022-08-14T11:19:25.249Z,1431.42
2022-08-14T11:20:24.039Z,1434.38
2022-08-14T11:21:23.484Z,1405.36
2022-08-14T11:22:52.529Z,1393.57
2022-08-14T11:23:24.213Z,1408.89
2022-08-14T11:24:54.014Z,1413.58
2022-08-14T11:25:24.102Z,1393.14
2022-08-14T11:26:23.060Z,1418.93
2022-08-14T11:27:28.379Z,1440.72
2022-08-14T11:28:47.708Z,1451.80
2022-08-14T11:29:24.599Z,1453.15
2022-08-14T11:30:50.981Z,1445.30
2022-08-14T11:31:24.326Z,1446.26
2022-08-14T11:32:22.803Z,1450.23
2022-08-14T11:33:22.782Z,1453.42
2022-08-14T11:34:32.325Z,1459.66
2022-08-14T11:35:23.677Z,1462.90
2022-08-14T11:36:22.639Z,1467.88
2022-08-14T11:37:31.623Z,1458.08
2022-08-14T11:38:23.542Z,1455.63
2022-08-14T11:39:33.793Z,1441.77
2022-08-14T11:40:28.428Z,1431.70
2022-08-14T11:41:24.685Z,1429.00
2022-08-14T11:42:57.320Z,1442.99
2022-08-14T11:43:29.651Z,1441.63
2022-08-14T11:44:46.308Z,1444.65
2022-08-14T11:45:24.216Z,1447.18
2022-08-14T11:46:30.762Z,1424.21
2022-08-14T11:47:24.107Z,1382.12
2022-08-14T11:49:02.563Z,1379.32
2022-08-14T11:49:24.030Z,1630.79
2022-08-14T11:50:33.786Z,1704.58
2022-08-14T11:51:24.489Z,1759.28
2022-08-14T11:52:22.878Z,1985.79
2022-08-14T11:53:22.847Z,2011.28
2022-08-14T11:54:34.772Z,2042.54
2022-08-14T11:55:25.680Z,2072.62
2022-08-14T11:56:25.251Z,2069.63
2022-08-14T11:57:22.864Z,2063.22
2022-08-14T11:58:24.374Z,2075.38
2022-08-14T11:59:26.401Z,2075.62
2022-08-14T12:00:31.715Z,2100.83
2022-08-14T12:01:23.484Z,2129.24
2022-08-14T12:03:01.115Z,2152.50
2022-08-14T12:03:27.039Z,2181.01
2022-08-14T12:04:32.098Z,2174.44
2022-08-14T12:05:23.254Z,2174.63
2022-08-14T12:06:29.396Z,2169.67
2022-08-14T12:07:23.202Z,2179.54
2022-08-14T12:08:24.641Z,2204.67
2022-08-14T12:09:22.987Z,2122.89
2022-08-14T12:10:26.691Z,2278.43
2022-08-14T12:11:23.877Z,2297.10
2022-08-14T12:12:34.969Z,2304.18
2022-08-14T12:13:27.426Z,2287.14
2022-08-14T12:14:30.758Z,2297.67
2022-08-14T12:15:23.568Z,2315.82
2022-08-14T12:16:22.806Z,2331.68
2022-08-14T12:17:24.158Z,2348.01
2022-08-14T12:18:22.399Z,2425.98
2022-08-14T12:19:22.928Z,2408.85
2022-08-14T12:20:29.836Z,2390.88
2022-08-14T12:21:23.237Z,2206.45
2022-08-14T12:22:29.637Z,1820.60
2022-08-14T12:23:23.130Z,1804.70
2022-08-14T12:24:31.796Z,2257.25
2022-08-14T12:25:24.916Z,2344.63
2022-08-14T12:26:39.824Z,2443.07
2022-08-14T12:27:24.886Z,2428.03
2022-08-14T12:28:27.092Z,2350.30
2022-08-14T12:29:23.711Z,2474.83
2022-08-14T12:30:22.634Z,2488.13
2022-08-14T12:31:22.593Z,2499.29
2022-08-14T12:32:22.504Z,2498.00
2022-08-14T12:33:23.844Z,2538.26
2022-08-14T12:34:24.113Z,2550.72
2022-08-14T12:35:22.315Z,2527.84
2022-08-14T12:36:22.212Z,1965.82
2022-08-14T12:37:23.108Z,2516.22
2022-08-14T12:38:22.054Z,1937.56
2022-08-14T12:39:22.064Z,2179.36
2022-08-14T12:40:21.918Z,2614.88
2022-08-14T12:41:22.131Z,2611.84
2022-08-14T12:42:27.139Z,2626.78
2022-08-14T12:43:22.708Z,2449.97
2022-08-14T12:44:21.659Z,2629.54
2022-08-14T12:45:21.594Z,2671.33
2022-08-14T12:46:27.167Z,2678.82
2022-08-14T12:47:23.619Z,2705.62
2022-08-14T12:48:31.380Z,2259.12
2022-08-14T12:49:23.324Z,2073.65
2022-08-14T12:50:22.256Z,2175.51
2022-08-14T12:51:27.083Z,2739.40
2022-08-14T12:52:30.767Z,2744.60
2022-08-14T12:53:23.095Z,2770.81
2022-08-14T12:54:28.640Z,2064.12
2022-08-14T12:55:22.938Z,2742.43
2022-08-14T12:56:34.152Z,2757.43
2022-08-14T12:57:22.828Z,2796.10
2022-08-14T12:58:35.282Z,2813.66
2022-08-14T12:59:22.769Z,2834.74
2022-08-14T13:00:22.616Z,2832.87
2022-08-14T13:01:21.708Z,2812.95
2022-08-14T13:02:21.608Z,2809.65
2022-08-14T13:03:21.518Z,2810.74
2022-08-14T13:04:21.453Z,2893.87
2022-08-14T13:05:21.401Z,2919.27
2022-08-14T13:06:22.339Z,2888.69
2022-08-14T13:07:22.292Z,2953.86
2022-08-14T13:08:34.190Z,2978.73
2022-08-14T13:09:23.458Z,3031.35
2022-08-14T13:10:47.814Z,3062.08
2022-08-14T13:11:23.936Z,3088.53
2022-08-14T13:12:31.820Z,3142.95
2022-08-14T13:13:22.817Z,3177.17
2022-08-14T13:14:26.428Z,3188.61
2022-08-14T13:15:22.228Z,3232.24
2022-08-14T13:16:37.959Z,3247.38
2022-08-14T13:17:22.165Z,3242.75
2022-08-14T13:18:22.164Z,3266.92
2022-08-14T13:19:24.252Z,3266.34
2022-08-14T13:20:24.189Z,3335.09
2022-08-14T13:21:21.994Z,3333.03
2022-08-14T13:22:32.314Z,3371.45
2022-08-14T13:23:30.564Z,3372.25
2022-08-14T13:24:22.665Z,3349.10
2022-08-14T13:25:22.561Z,3348.60
2022-08-14T13:26:21.501Z,3356.55
2022-08-14T13:27:22.876Z,3298.71
2022-08-14T13:28:32.677Z,3294.78
2022-08-14T13:29:22.224Z,3351.70
2022-08-14T13:30:23.784Z,3104.85
2022-08-14T13:31:21.131Z,3399.40